Time;durP1;ratioP1;P1;durP2;ratioP2;P2;SDS_P1;SDS_P2;PMS_P1;PMS_P2;Temp;Humidity;BMP_temperature;BMP_pressure;BME280_temperature;BME280_humidity;BME280_pressure;Samples;Min_cycle;Max_cycle;Signal;HPM_P1;HPM_P2
2022/06/17 00:00:53;;;;;;;7.18;4.75;;;;;;;18.80;84.51;94748.47;5094202;28;20823;-61
2022/06/17 00:03:20;;;;;;;5.65;4.40;;;;;;;18.67;85.90;94732.81;5076090;28;20571;-62
2022/06/17 00:05:46;;;;;;;7.28;4.78;;;;;;;18.66;85.34;94738.97;5094347;28;20227;-62
2022/06/17 00:08:16;;;;;;;6.75;4.60;;;;;;;18.65;85.53;94732.19;5093990;28;20164;-64
2022/06/17 00:10:42;;;;;;;6.80;4.78;;;;;;;18.59;86.17;94722.59;5094324;28;20283;-64
2022/06/17 00:13:12;;;;;;;5.10;4.40;;;;;;;18.51;86.43;94727.84;5094294;28;20253;-65
2022/06/17 00:15:37;;;;;;;7.68;4.68;;;;;;;18.44;87.55;94718.22;5094337;28;20200;-60
2022/06/17 00:18:02;;;;;;;7.10;4.88;;;;;;;18.44;85.97;94728.53;5094076;28;20179;-61
2022/06/17 00:20:30;;;;;;;6.03;4.30;;;;;;;18.30;86.73;94718.97;5075353;28;20723;-61
2022/06/17 00:22:55;;;;;;;7.75;4.57;;;;;;;18.13;88.05;94714.97;5093630;28;20157;-61
2022/06/17 00:25:24;;;;;;;4.47;3.80;;;;;;;18.13;88.17;94725.25;5094158;28;20204;-65
2022/06/17 00:27:52;;;;;;;6.22;4.68;;;;;;;18.13;87.83;94732.19;5093918;28;20167;-65
2022/06/17 00:30:22;;;;;;;5.00;4.45;;;;;;;18.01;89.12;94726.66;5075573;28;20299;-67
2022/06/17 00:32:51;;;;;;;5.60;4.75;;;;;;;18.04;89.88;94741.72;5075773;28;20608;-64
2022/06/17 00:35:17;;;;;;;4.93;4.43;;;;;;;17.97;90.51;94729.72;5092688;28;20207;-64
2022/06/17 00:37:43;;;;;;;4.32;3.92;;;;;;;18.15;88.74;94750.81;5093278;28;20230;-65
2022/06/17 00:40:17;;;;;;;4.28;3.92;;;;;;;18.07;89.38;94740.59;5093737;28;20208;-60
2022/06/17 00:42:43;;;;;;;10.05;4.15;;;;;;;18.11;88.62;94745.22;5093494;28;20167;-59
2022/06/17 00:45:19;;;;;;;4.93;4.40;;;;;;;18.07;88.94;94731.09;5093569;28;20207;-62
2022/06/17 00:47:49;;;;;;;6.93;4.40;;;;;;;18.10;89.36;94729.97;5093111;28;20168;-66
2022/06/17 00:50:20;;;;;;;7.60;4.03;;;;;;;18.10;89.25;94729.97;5093547;28;20246;-62
2022/06/17 00:53:41;;;;;;;5.03;4.15;;;;;;;18.05;89.82;94724.53;5093200;28;20160;-63
2022/06/17 00:56:27;;;;;;;4.60;3.90;;;;;;;17.85;88.56;94689.97;5031029;28;20299;-66
2022/06/17 00:58:57;;;;;;;4.47;4.07;;;;;;;18.23;89.27;94743.03;5074903;28;20191;-63
2022/06/17 01:01:24;;;;;;;5.20;3.22;;;;;;;18.27;87.83;94742.50;5074886;28;20215;-63
2022/06/17 01:03:53;;;;;;;5.93;3.90;;;;;;;18.49;86.88;94761.50;5074133;28;20313;-66
2022/06/17 01:06:23;;;;;;;10.07;4.38;;;;;;;18.41;86.45;94758.94;5092243;28;20279;-60
2022/06/17 01:11:45;;;;;;;12.27;3.35;;;;;;;18.39;85.55;94764.28;5092998;28;20255;-62
2022/06/17 01:14:15;;;;;;;5.97;4.05;;;;;;;18.36;85.93;94766.41;5092999;28;20259;-63
2022/06/17 01:16:43;;;;;;;4.35;3.70;;;;;;;18.24;86.56;94760.88;5074429;28;20216;-62
2022/06/17 01:19:38;;;;;;;4.40;3.70;;;;;;;18.15;87.48;94749.06;5092573;28;20279;-62
2022/06/17 01:22:26;;;;;;;4.15;3.75;;;;;;;18.07;89.72;94714.84;5086850;28;20223;-66
2022/06/17 01:25:03;;;;;;;4.88;4.35;;;;;;;18.12;87.98;94738.31;5092577;28;20216;-65
2022/06/17 01:27:33;;;;;;;6.13;3.58;;;;;;;18.14;87.19;94739.72;5092502;28;20171;-65
2022/06/17 01:29:59;;;;;;;4.20;3.72;;;;;;;18.09;87.95;94736.88;5074339;28;20208;-64
2022/06/17 01:32:32;;;;;;;5.82;4.35;;;;;;;18.02;88.09;94717.94;5092428;28;20161;-65
2022/06/17 01:34:57;;;;;;;6.65;4.00;;;;;;;18.16;87.62;94732.63;5092258;28;20235;-66
2022/06/17 01:37:23;;;;;;;4.57;4.10;;;;;;;18.21;88.39;94724.38;5074241;28;20237;-65
2022/06/17 01:39:49;;;;;;;4.55;4.05;;;;;;;18.25;87.13;94736.75;5092537;28;20207;-65
2022/06/17 01:42:17;;;;;;;5.45;3.60;;;;;;;18.10;87.23;94724.81;5073963;28;20273;-65
2022/06/17 01:44:43;;;;;;;5.82;3.97;;;;;;;18.03;88.34;94709.28;5092442;28;20265;-65
2022/06/17 01:47:13;;;;;;;5.82;4.07;;;;;;;18.05;88.77;94706.50;5091845;28;20537;-66
2022/06/17 01:49:45;;;;;;;6.10;3.85;;;;;;;18.03;89.88;94695.59;5092100;28;20200;-66
2022/06/17 01:52:19;;;;;;;4.47;3.83;;;;;;;17.91;90.07;94694.41;5092142;28;20176;-65
2022/06/17 01:55:01;;;;;;;6.35;3.85;;;;;;;17.92;88.10;94712.25;5075331;28;20203;-65
2022/06/17 01:57:39;;;;;;;4.03;3.63;;;;;;;17.95;88.06;94721.38;5098003;28;20195;-68
2022/06/17 02:00:22;;;;;;;5.90;3.60;;;;;;;17.88;89.50;94705.03;5074693;28;20212;-66
2022/06/17 02:02:54;;;;;;;5.15;3.70;;;;;;;17.88;90.05;94692.97;5096709;28;20571;-65
2022/06/17 02:05:22;;;;;;;5.95;4.10;;;;;;;17.94;90.53;94694.06;5097682;28;20204;-65
2022/06/17 02:07:57;;;;;;;4.20;3.80;;;;;;;18.10;88.75;94722.25;5096856;28;20172;-67
2022/06/17 02:10:27;;;;;;;5.72;3.55;;;;;;;17.99;88.54;94728.59;5079086;28;20269;-65
2022/06/17 02:12:54;;;;;;;4.25;3.47;;;;;;;18.08;87.42;94740.41;5078382;28;20199;-65
2022/06/17 02:15:20;;;;;;;4.47;3.65;;;;;;;18.13;86.58;94761.28;5092525;28;20200;-63
2022/06/17 02:17:48;;;;;;;5.28;3.13;;;;;;;17.91;88.85;94736.38;5091883;28;20164;-63
2022/06/17 02:20:17;;;;;;;4.03;3.65;;;;;;;17.87;89.82;94719.69;5091964;28;20272;-61
2022/06/17 02:22:43;;;;;;;4.15;3.75;;;;;;;17.89;89.89;94722.09;5091919;28;20226;-60
2022/06/17 02:25:12;;;;;;;5.75;3.50;;;;;;;18.13;89.13;94734.75;5073360;28;20207;-65
2022/06/17 02:27:50;;;;;;;3.60;3.28;;;;;;;18.05;87.27;94757.97;5091921;28;20542;-66
2022/06/17 02:30:17;;;;;;;3.63;2.65;;;;;;;17.97;87.83;94748.56;5073659;28;20677;-67
2022/06/17 02:32:45;;;;;;;3.88;3.30;;;;;;;17.92;88.84;94732.81;5091663;28;20180;-65
2022/06/17 02:35:28;;;;;;;3.95;3.47;;;;;;;18.06;89.52;94724.34;5091980;28;20200;-66
2022/06/17 02:37:54;;;;;;;5.13;3.22;;;;;;;17.91;87.77;94743.28;5091526;28;20180;-61
2022/06/17 02:40:36;;;;;;;3.97;3.00;;;;;;;17.84;87.85;94739.78;5073551;28;20523;-60
2022/06/17 02:43:05;;;;;;;6.82;3.10;;;;;;;17.82;88.08;94737.41;5091622;28;20255;-65
2022/06/17 02:45:35;;;;;;;8.93;3.78;;;;;;;17.67;88.37;94735.75;5092112;28;20646;-60
2022/06/17 02:48:04;;;;;;;5.55;2.90;;;;;;;17.64;88.66;94729.16;5091755;28;20180;-60
2022/06/17 02:50:30;;;;;;;5.75;3.67;;;;;;;17.63;88.63;94730.91;5091963;28;20269;-62
2022/06/17 02:52:59;;;;;;;5.82;3.38;;;;;;;17.62;88.75;94728.53;5091888;28;20627;-61
2022/06/17 02:55:35;;;;;;;3.10;2.90;;;;;;;17.51;89.32;94719.44;5091740;28;20306;-61
2022/06/17 02:58:37;;;;;;;4.22;3.70;;;;;;;17.59;88.73;94728.88;5092572;28;20544;-67
2022/06/17 03:01:07;;;;;;;6.47;3.65;;;;;;;17.47;89.95;94718.13;5095552;28;20300;-66
2022/06/17 03:03:34;;;;;;;7.18;3.45;;;;;;;17.48;90.74;94716.38;5095275;28;20251;-64
2022/06/17 03:06:00;;;;;;;4.45;3.53;;;;;;;17.49;90.64;94711.09;5095003;28;20273;-64
2022/06/17 03:08:29;;;;;;;4.57;3.58;;;;;;;17.60;89.50;94715.84;5095089;28;20650;-61
2022/06/17 03:10:58;;;;;;;7.90;3.83;;;;;;;17.71;89.38;94740.38;5094867;28;20207;-60
2022/06/17 03:13:29;;;;;;;5.25;3.58;;;;;;;17.65;89.23;94740.25;5076991;28;20690;-61
2022/06/17 03:15:58;;;;;;;4.72;2.97;;;;;;;17.82;88.06;94747.69;5094866;28;20558;-60
2022/06/17 03:18:25;;;;;;;6.18;3.22;;;;;;;17.75;87.74;94743.41;5095021;28;20191;-60
2022/06/17 03:20:51;;;;;;;4.25;3.65;;;;;;;17.81;87.63;94753.81;5094607;28;20212;-61
2022/06/17 03:23:20;;;;;;;4.10;3.08;;;;;;;17.84;86.66;94765.50;5094914;28;20172;-65
2022/06/17 03:25:56;;;;;;;4.93;3.35;;;;;;;17.69;87.37;94746.66;5076755;28;20689;-61
2022/06/17 03:28:29;;;;;;;6.32;3.72;;;;;;;17.58;88.08;94734.97;5094689;28;20583;-62
2022/06/17 03:31:06;;;;;;;3.55;3.20;;;;;;;17.56;89.14;94739.50;5076382;28;20212;-62
2022/06/17 03:33:37;;;;;;;3.67;3.00;;;;;;;17.70;87.78;94764.47;5094506;28;20568;-64
2022/06/17 03:36:19;;;;;;;5.20;3.50;;;;;;;17.41;87.13;94718.03;5076267;28;20281;-66
2022/06/17 03:38:51;;;;;;;4.35;2.72;;;;;;;17.55;88.11;94743.81;5076400;28;20629;-65
2022/06/17 03:41:34;;;;;;;3.30;3.00;;;;;;;17.53;88.46;94742.41;5094324;28;20212;-66
2022/06/17 03:44:02;;;;;;;6.90;3.45;;;;;;;17.13;88.47;94699.69;5076283;28;20706;-63
2022/06/17 03:46:33;;;;;;;4.43;3.63;;;;;;;17.36;89.63;94735.72;5094570;28;20191;-61
2022/06/17 03:49:14;;;;;;;4.32;3.33;;;;;;;17.26;90.20;94730.81;5094432;28;20271;-64
2022/06/17 03:51:42;;;;;;;6.28;3.67;;;;;;;17.27;90.68;94732.38;5094349;28;20165;-66
2022/06/17 03:54:15;;;;;;;5.38;3.42;;;;;;;17.42;90.19;94750.47;5075993;28;20589;-65
2022/06/17 03:56:45;;;;;;;4.82;3.25;;;;;;;17.48;89.79;94749.78;5094500;28;20644;-63
2022/06/17 03:59:16;;;;;;;4.93;3.60;;;;;;;17.36;90.99;94740.88;5094447;28;20180;-64
2022/06/17 04:01:45;;;;;;;9.10;3.78;;;;;;;17.55;90.67;94750.75;5093974;28;20231;-61
2022/06/17 04:04:33;;;;;;;4.85;3.70;;;;;;;17.66;89.53;94764.97;5094438;28;20180;-62
2022/06/17 04:06:59;;;;;;;9.35;8.10;;;;;;;17.90;100.00;94739.91;5058960;28;20195;-61
2022/06/17 04:09:30;;;;;;;28.75;26.15;;;;;;;18.02;100.00;94746.25;5093985;28;20200;-60
2022/06/17 04:12:03;;;;;;;11.25;9.95;;;;;;;18.63;100.00;94765.84;5094121;28;20177;-67
2022/06/17 04:14:54;;;;;;;6.40;5.03;;;;;;;19.07;100.00;94774.41;5093929;28;20348;-61
2022/06/17 04:17:45;;;;;;;24.52;10.15;;;;;;;19.41;100.00;94771.31;5075608;28;20188;-61
2022/06/17 04:20:45;;;;;;;6.35;3.63;;;;;;;19.70;100.00;94843.47;5094007;28;20204;-63
2022/06/17 04:23:24;;;;;;;12.35;4.63;;;;;;;19.71;100.00;94844.28;5094051;28;20179;-62
2022/06/17 04:25:55;;;;;;;9.05;3.75;;;;;;;19.87;100.00;94917.13;5092179;28;20252;-63
2022/06/17 04:28:26;;;;;;;4.30;3.50;;;;;;;19.63;100.00;94891.63;5093409;28;20173;-63
2022/06/17 04:30:59;;;;;;;7.43;4.05;;;;;;;19.45;100.00;94883.44;5093354;28;20295;-63
2022/06/17 04:33:29;;;;;;;4.82;3.90;;;;;;;19.25;100.00;94864.25;5093284;28;20243;-63
2022/06/17 04:36:18;;;;;;;5.20;3.35;;;;;;;19.04;100.00;94851.28;5093204;28;20295;-64
2022/06/17 04:39:14;;;;;;;3.65;3.35;;;;;;;18.78;100.00;94819.97;5093543;28;20241;-65
2022/06/17 04:41:43;;;;;;;3.95;3.53;;;;;;;18.53;100.00;94803.13;5093470;28;20200;-65
2022/06/17 04:44:12;;;;;;;6.15;3.63;;;;;;;18.45;100.00;94829.75;5075384;28;20176;-66
2022/06/17 04:46:47;;;;;;;7.30;3.38;;;;;;;18.11;100.00;94786.41;5093620;28;20198;-63
2022/06/17 04:49:21;;;;;;;5.35;3.70;;;;;;;18.19;100.00;94796.63;5093681;28;20191;-67
2022/06/17 04:51:49;;;;;;;7.63;3.72;;;;;;;18.13;100.00;94781.88;5093485;28;20259;-63
2022/06/17 04:54:15;;;;;;;7.15;4.03;;;;;;;18.41;100.00;94782.94;5075539;28;20215;-65
2022/06/17 04:56:45;;;;;;;5.65;3.80;;;;;;;18.40;100.00;94825.09;5093694;28;20208;-65
2022/06/17 04:59:32;;;;;;;7.75;3.72;;;;;;;18.55;100.00;94832.06;5075119;28;20168;-65
2022/06/17 05:02:00;;;;;;;4.65;3.67;;;;;;;18.45;100.00;94822.03;5074919;28;20676;-64
2022/06/17 05:04:26;;;;;;;4.13;3.72;;;;;;;18.53;100.00;94824.53;5093656;28;20283;-64
2022/06/17 05:06:53;;;;;;;4.22;3.40;;;;;;;18.58;100.00;94824.03;5093129;28;20207;-65
2022/06/17 05:09:37;;;;;;;4.45;3.75;;;;;;;18.73;100.00;94830.78;5093286;28;20180;-65
2022/06/17 05:12:12;;;;;;;7.85;3.55;;;;;;;18.59;100.00;94799.84;5093016;28;20160;-65
2022/06/17 05:14:42;;;;;;;5.68;3.50;;;;;;;18.70;100.00;94820.06;5074751;28;20751;-65
2022/06/17 05:17:07;;;;;;;8.02;3.97;;;;;;;18.69;100.00;94808.94;5093002;28;20255;-64
2022/06/17 05:19:33;;;;;;;5.05;4.43;;;;;;;18.80;100.00;94825.75;5074641;28;20334;-62
2022/06/17 05:22:00;;;;;;;5.43;4.32;;;;;;;18.74;100.00;94827.25;5073531;28;20235;-62
2022/06/17 05:24:28;;;;;;;9.13;4.30;;;;;;;18.57;100.00;94807.75;5092719;28;20200;-64
2022/06/17 05:26:53;;;;;;;4.70;4.20;;;;;;;18.62;100.00;94802.09;5092875;28;20191;-62
2022/06/17 05:29:19;;;;;;;5.43;4.20;;;;;;;18.68;100.00;94786.75;5073919;28;20176;-61
2022/06/17 05:31:49;;;;;;;6.28;4.63;;;;;;;18.95;100.00;94804.16;5090399;28;20646;-60
2022/06/17 05:34:15;;;;;;;5.68;4.25;;;;;;;18.93;100.00;94797.59;5073489;28;20187;-60
2022/06/17 05:36:41;;;;;;;6.00;4.82;;;;;;;19.11;100.00;94845.22;5092417;28;20207;-61
2022/06/17 05:39:07;;;;;;;8.00;4.78;;;;;;;19.19;100.00;94837.41;5092481;28;20618;-65
2022/06/17 05:41:32;;;;;;;5.70;4.25;;;;;;;19.22;100.00;94818.22;5092356;28;20207;-62
2022/06/17 05:43:58;;;;;;;10.05;4.40;;;;;;;19.26;100.00;94832.34;5091467;28;20191;-60
2022/06/17 05:46:23;;;;;;;6.75;4.10;;;;;;;19.23;100.00;94794.84;5074096;28;20192;-60
2022/06/17 05:48:49;;;;;;;5.20;4.18;;;;;;;19.38;100.00;94806.94;5092250;28;20646;-60
2022/06/17 05:51:14;;;;;;;7.57;4.60;;;;;;;19.39;100.00;94817.09;5092184;28;20710;-61
2022/06/17 05:53:39;;;;;;;4.97;3.70;;;;;;;19.13;100.00;94799.47;5092342;28;20165;-61
2022/06/17 05:56:05;;;;;;;11.23;5.30;;;;;;;19.20;100.00;94809.88;5074051;28;20199;-65
2022/06/17 05:58:31;;;;;;;5.72;4.03;;;;;;;19.30;100.00;94841.34;5092174;28;20172;-63
2022/06/17 06:00:56;;;;;;;7.60;5.50;;;;;;;19.12;100.00;94820.28;5092598;28;20216;-64
2022/06/17 06:03:24;;;;;;;7.60;4.38;;;;;;;19.09;100.00;94800.00;5074185;28;20589;-64
2022/06/17 06:05:51;;;;;;;8.27;4.60;;;;;;;19.51;100.00;94825.97;5091911;28;20196;-62
2022/06/17 06:08:16;;;;;;;4.28;3.88;;;;;;;19.69;100.00;94828.97;5091913;28;20180;-62
2022/06/17 06:10:43;;;;;;;4.07;3.78;;;;;;;19.87;100.00;94857.78;5092113;28;20291;-60
2022/06/17 06:13:15;;;;;;;5.15;3.83;;;;;;;19.97;100.00;94862.63;5091980;28;20184;-61
2022/06/17 06:15:42;;;;;;;6.47;4.32;;;;;;;19.91;100.00;94850.47;5092490;28;20673;-61
2022/06/17 06:18:10;;;;;;;7.05;5.13;;;;;;;19.96;99.59;94864.41;5091808;28;20263;-63
2022/06/17 06:20:43;;;;;;;8.52;4.70;;;;;;;19.93;99.21;94869.13;5092236;28;20239;-62
2022/06/17 06:23:09;;;;;;;7.78;4.72;;;;;;;19.90;100.00;94841.91;5073619;28;20199;-62
2022/06/17 06:25:35;;;;;;;10.23;4.70;;;;;;;19.98;99.51;94853.91;5091699;28;20196;-61
2022/06/17 06:28:22;;;;;;;8.00;4.93;;;;;;;20.02;100.00;94824.16;5091843;28;20310;-62
2022/06/17 06:30:57;;;;;;;7.30;5.07;;;;;;;20.11;100.00;94848.88;5092006;28;20224;-61
2022/06/17 06:33:23;;;;;;;7.30;4.57;;;;;;;20.04;100.00;94837.69;5076772;28;20207;-62
2022/06/17 06:35:49;;;;;;;7.00;3.83;;;;;;;20.16;99.95;94846.53;5095856;28;20204;-63
2022/06/17 06:38:14;;;;;;;9.25;5.13;;;;;;;20.25;99.88;94844.69;5095929;28;20171;-62
2022/06/17 06:40:40;;;;;;;9.73;5.05;;;;;;;20.39;99.27;94854.16;5096050;28;20256;-63
2022/06/17 06:43:15;;;;;;;10.15;5.13;;;;;;;20.51;99.49;94845.72;5095576;28;20180;-64
2022/06/17 06:45:43;;;;;;;9.27;4.85;;;;;;;20.78;98.27;94854.50;5096135;28;20195;-64
2022/06/17 06:48:10;;;;;;;10.57;5.50;;;;;;;20.83;97.40;94867.66;5077279;28;20189;-64
2022/06/17 06:50:37;;;;;;;12.85;4.90;;;;;;;20.80;96.33;94880.97;5095357;28;20235;-63
2022/06/17 06:53:04;;;;;;;11.23;6.20;;;;;;;20.51;99.77;94824.25;5095277;28;20315;-61
2022/06/17 06:55:29;;;;;;;8.68;5.25;;;;;;;20.67;99.14;94829.16;5095802;28;20291;-64
2022/06/17 06:58:01;;;;;;;10.90;6.15;;;;;;;21.01;99.07;94836.19;5096489;28;20215;-64
2022/06/17 07:00:33;;;;;;;11.75;6.43;;;;;;;20.96;96.90;94870.34;5095424;28;20208;-64
2022/06/17 07:02:59;;;;;;;9.93;5.60;;;;;;;21.13;97.07;94863.16;5077300;28;20211;-64
2022/06/17 07:05:25;;;;;;;13.25;8.30;;;;;;;21.16;95.78;94886.84;5095636;28;20196;-65
2022/06/17 07:07:50;;;;;;;10.30;6.70;;;;;;;21.23;95.86;94873.97;5076945;28;20238;-61
2022/06/17 07:10:25;;;;;;;10.05;5.43;;;;;;;21.37;95.25;94886.75;5095485;28;20199;-64
2022/06/17 07:12:52;;;;;;;10.43;6.22;;;;;;;21.77;100.00;94721.31;5077047;28;20180;-61
2022/06/17 07:15:18;;;;;;;10.82;5.45;;;;;;;21.81;99.64;94811.38;5077295;28;20196;-65
2022/06/17 07:18:12;;;;;;;7.43;4.85;;;;;;;22.02;100.00;94733.53;5095627;28;20188;-62
2022/06/17 07:20:42;;;;;;;7.97;5.07;;;;;;;22.16;91.15;94931.22;5081790;28;20216;-60
2022/06/17 07:23:15;;;;;;;7.05;4.80;;;;;;;22.16;100.00;94768.03;5094804;28;20177;-61
2022/06/17 07:25:43;;;;;;;9.02;4.55;;;;;;;22.39;100.00;94776.22;5095401;28;20677;-64
2022/06/17 07:28:12;;;;;;;9.18;5.80;;;;;;;22.70;98.96;94820.53;5076478;28;20269;-64
2022/06/17 07:30:38;;;;;;;9.45;6.63;;;;;;;22.97;94.13;94892.09;5076733;28;20200;-62
2022/06/17 07:33:03;;;;;;;9.45;6.10;;;;;;;23.30;94.54;94873.94;5094605;28;20260;-62
2022/06/17 07:35:31;;;;;;;13.20;5.15;;;;;;;23.48;91.09;94914.84;5094899;28;20568;-63
2022/06/17 07:40:47;;;;;;;5.93;5.30;;;;;;;23.60;88.69;94906.25;5096165;28;20261;-64
2022/06/17 07:43:14;;;;;;;7.40;6.13;;;;;;;23.71;89.27;94907.41;5076013;28;20241;-63
2022/06/17 07:45:39;;;;;;;6.47;5.10;;;;;;;23.88;90.68;94865.19;5094648;28;20621;-61
2022/06/17 07:48:06;;;;;;;6.78;5.57;;;;;;;23.93;86.80;94932.13;5094399;28;20233;-60
2022/06/17 07:50:33;;;;;;;6.32;5.72;;;;;;;24.11;86.98;94930.50;5094835;28;20200;-61
2022/06/17 07:52:59;;;;;;;11.50;6.00;;;;;;;24.20;84.21;94935.47;5076315;28;20188;-60
2022/06/17 07:55:31;;;;;;;11.15;6.32;;;;;;;24.12;80.71;94998.84;5094814;28;20206;-61
2022/06/17 07:57:57;;;;;;;7.03;5.78;;;;;;;23.83;80.57;94988.91;5094088;28;20573;-61
2022/06/17 08:00:29;;;;;;;8.02;5.53;;;;;;;23.89;80.92;94967.31;5094554;28;20365;-64
2022/06/17 08:02:55;;;;;;;5.60;4.88;;;;;;;23.85;81.82;94922.78;5094005;28;20199;-63
2022/06/17 08:05:21;;;;;;;6.95;5.97;;;;;;;23.83;81.04;94935.16;5094442;28;20211;-64
2022/06/17 08:07:51;;;;;;;7.80;6.07;;;;;;;23.84;81.14;94904.78;5093756;28;20176;-64
2022/06/17 08:10:19;;;;;;;7.28;6.10;;;;;;;23.94;76.13;94954.50;5075930;28;20196;-62
2022/06/17 08:12:45;;;;;;;8.38;5.90;;;;;;;24.05;75.11;94967.69;5093880;28;20184;-62
2022/06/17 08:15:12;;;;;;;8.75;5.57;;;;;;;24.15;67.46;94998.44;5075774;28;20764;-61
2022/06/17 08:17:41;;;;;;;8.05;5.57;;;;;;;24.13;70.15;94930.28;5093727;28;20588;-62
2022/06/17 08:20:16;;;;;;;7.47;5.47;;;;;;;24.34;70.62;94913.63;5075562;28;20666;-61
2022/06/17 08:22:42;;;;;;;6.78;6.07;;;;;;;24.66;70.03;94917.81;5093758;28;20176;-60
2022/06/17 08:25:09;;;;;;;9.45;6.60;;;;;;;24.68;69.93;94911.41;5094111;28;20306;-63
2022/06/17 08:27:43;;;;;;;10.85;6.07;;;;;;;24.43;70.26;94897.56;5075405;28;20222;-64
2022/06/17 08:30:10;;;;;;;11.02;6.25;;;;;;;24.61;69.31;94913.25;5075910;28;20558;-64
2022/06/17 08:32:45;;;;;;;12.35;7.07;;;;;;;24.73;67.45;94961.03;5093449;28;20176;-60
2022/06/17 08:35:12;;;;;;;8.13;6.22;;;;;;;24.54;67.35;94948.91;5093808;28;20204;-60
2022/06/17 08:37:37;;;;;;;6.55;5.80;;;;;;;24.62;67.83;94932.25;5093574;28;20225;-61
2022/06/17 08:40:17;;;;;;;7.30;5.82;;;;;;;24.63;68.58;94882.63;5093809;28;20200;-64
2022/06/17 08:42:42;;;;;;;12.38;6.63;;;;;;;24.94;70.03;94869.66;5075272;28;20271;-63
2022/06/17 08:45:23;;;;;;;8.00;6.13;;;;;;;24.83;70.99;94852.09;5093388;28;20284;-64
2022/06/17 08:47:56;;;;;;;7.32;5.70;;;;;;;24.91;69.58;94885.66;5093520;28;20184;-64
2022/06/17 08:50:37;;;;;;;7.32;6.25;;;;;;;24.85;70.12;94875.28;5075437;28;20697;-64
2022/06/17 08:53:33;;;;;;;10.38;6.97;;;;;;;24.00;66.21;94949.28;5093312;28;20247;-63
2022/06/17 08:56:15;;;;;;;9.68;6.72;;;;;;;24.27;67.65;94902.44;5092317;28;20223;-59
2022/06/17 08:59:19;;;;;;;8.88;7.18;;;;;;;24.57;69.01;94878.28;5093003;28;20168;-60
2022/06/17 09:02:29;;;;;;;7.45;6.45;;;;;;;24.84;69.43;94873.72;5061968;28;20240;-62
2022/06/17 09:05:31;;;;;;;8.55;5.80;;;;;;;24.89;68.22;94899.88;5064092;28;20251;-62
2022/06/17 09:08:17;;;;;;;6.95;6.22;;;;;;;25.01;69.03;94874.00;5092856;28;20176;-61
2022/06/17 09:11:13;;;;;;;10.25;6.50;;;;;;;25.12;70.41;94839.44;5092545;28;20196;-64
2022/06/17 09:13:57;;;;;;;6.88;5.95;;;;;;;25.55;67.53;94913.97;5092647;28;20208;-62
2022/06/17 09:17:23;;;;;;;6.40;5.75;;;;;;;25.78;67.94;94888.09;5089263;27;20508;-61
2022/06/17 09:19:52;;;;;;;17.23;7.78;;;;;;;26.08;67.65;94913.44;5089013;28;20215;-60
2022/06/17 09:22:34;;;;;;;10.88;6.60;;;;;;;26.28;65.54;94951.28;5089257;28;20172;-63
2022/06/17 09:25:07;;;;;;;7.70;6.18;;;;;;;26.21;65.16;94945.38;5089350;28;20246;-63
2022/06/17 09:27:38;;;;;;;9.27;5.53;;;;;;;25.92;60.32;95028.66;5089210;28;20188;-62
2022/06/17 09:30:11;;;;;;;7.03;6.07;;;;;;;26.26;62.76;94957.75;5089325;28;20581;-61
2022/06/17 09:32:37;;;;;;;8.65;5.78;;;;;;;26.53;60.85;94996.31;5088867;28;20171;-60
2022/06/17 09:35:25;;;;;;;8.98;5.68;;;;;;;26.17;63.18;94907.72;5088986;28;20192;-61
2022/06/17 09:38:12;;;;;;;9.10;5.90;;;;;;;26.03;60.98;94984.44;5088798;28;20196;-61
2022/06/17 09:40:46;;;;;;;7.82;5.40;;;;;;;26.19;61.56;94959.63;5089129;28;20278;-60
2022/06/17 09:43:14;;;;;;;14.07;5.97;;;;;;;26.25;59.74;95001.28;5089071;28;20177;-63
2022/06/17 09:46:07;;;;;;;6.75;5.68;;;;;;;26.50;60.15;94978.50;5088915;28;20303;-63
2022/06/17 09:48:39;;;;;;;7.30;5.95;;;;;;;26.86;61.09;94959.41;5088780;28;20561;-61
2022/06/17 09:51:07;;;;;;;10.93;5.95;;;;;;;27.08;62.98;94908.25;5088475;28;20207;-63
2022/06/17 09:53:38;;;;;;;9.13;5.82;;;;;;;27.20;59.98;94974.34;5088802;28;20193;-63
2022/06/17 09:56:16;;;;;;;9.65;5.80;;;;;;;26.93;60.37;94960.09;5088819;28;20269;-59
2022/06/17 09:59:03;;;;;;;8.57;5.82;;;;;;;26.89;60.11;94960.75;5088709;28;20180;-60
2022/06/17 10:01:29;;;;;;;6.85;5.68;;;;;;;26.82;60.33;94957.44;5088635;28;20187;-64
2022/06/17 10:03:54;;;;;;;9.18;5.57;;;;;;;26.99;56.80;95021.84;5088626;28;20263;-64
2022/06/17 10:06:32;;;;;;;9.55;5.55;;;;;;;26.85;55.26;95058.78;5087125;28;20299;-64
2022/06/17 10:09:07;;;;;;;9.90;5.45;;;;;;;27.61;54.27;95058.97;5088215;28;20247;-65
2022/06/17 10:11:47;;;;;;;6.25;5.07;;;;;;;27.84;56.25;95012.72;5088553;28;20184;-61
2022/06/17 10:14:32;;;;;;;7.47;4.82;;;;;;;27.03;51.50;95121.38;5087954;28;20173;-64
2022/06/17 10:20:25;;;;;;;8.00;5.95;;;;;;;27.69;55.56;94970.56;5087934;28;20218;-61
2022/06/17 10:23:34;;;;;;;15.05;5.80;;;;;;;27.59;49.86;95101.00;5088141;28;20713;-63
2022/06/17 10:26:25;;;;;;;7.25;4.85;;;;;;;27.56;45.88;95056.22;5085763;28;20250;-62
2022/06/17 10:29:19;;;;;;;7.00;5.43;;;;;;;28.10;47.46;94980.91;5075867;28;20718;-60
2022/06/17 10:31:47;;;;;;;6.53;5.38;;;;;;;28.25;47.81;94972.59;5075453;28;20189;-60
2022/06/17 10:36:39;;;;;;;9.48;4.78;;;;;;;27.73;50.79;94901.16;5040997;22;20727;-62
2022/06/17 10:39:10;;;;;;;8.13;5.20;;;;;;;27.31;51.93;94886.59;5034812;28;20192;-62
2022/06/17 10:41:36;;;;;;;8.43;5.38;;;;;;;27.24;50.53;94881.50;5034355;28;20163;-60
2022/06/17 10:44:03;;;;;;;12.77;5.32;;;;;;;28.01;50.76;94901.25;5034043;28;20182;-60
2022/06/17 10:46:36;;;;;;;8.10;5.07;;;;;;;28.24;51.84;94880.25;5032778;28;20178;-64
2022/06/17 10:49:14;;;;;;;8.40;5.22;;;;;;;28.65;48.96;94941.19;5032647;28;20649;-64
2022/06/17 10:51:49;;;;;;;5.82;5.22;;;;;;;28.43;47.48;94964.59;5033996;28;20655;-60
2022/06/17 10:54:23;;;;;;;7.22;5.47;;;;;;;27.93;48.59;94927.72;5034937;28;20177;-63
2022/06/17 10:57:10;;;;;;;7.63;5.72;;;;;;;28.10;50.05;94899.03;5034653;28;20181;-59
2022/06/17 10:59:42;;;;;;;7.13;5.22;;;;;;;28.93;46.94;94965.53;5032867;28;20213;-62
2022/06/17 11:02:30;;;;;;;7.43;5.32;;;;;;;28.63;44.17;95000.84;5034030;28;20173;-62
2022/06/17 11:05:01;;;;;;;6.00;5.15;;;;;;;28.52;43.51;95002.44;5032492;28;20250;-60
2022/06/17 11:07:37;;;;;;;7.35;4.35;;;;;;;28.65;43.19;95004.03;5033892;28;20204;-60
2022/06/17 11:10:21;;;;;;;6.65;4.88;;;;;;;28.37;44.03;94993.47;5032360;28;20216;-60
2022/06/17 11:13:04;;;;;;;5.20;4.68;;;;;;;28.18;43.72;94982.38;5039199;23;20670;-61
2022/06/17 11:15:43;;;;;;;8.73;5.13;;;;;;;28.64;45.66;94927.34;5013979;28;20577;-60
2022/06/17 11:18:14;;;;;;;6.72;5.75;;;;;;;28.68;43.62;94974.78;5028462;28;20198;-64
2022/06/17 11:20:40;;;;;;;7.95;5.45;;;;;;;29.26;45.11;94936.00;5013679;28;20257;-62
2022/06/17 11:23:21;;;;;;;5.90;4.50;;;;;;;29.82;43.10;94987.47;5013865;28;20195;-63
2022/06/17 11:25:47;;;;;;;7.40;5.22;;;;;;;29.34;43.67;94964.44;5013453;28;20253;-63
2022/06/17 11:28:24;;;;;;;7.60;4.97;;;;;;;29.61;46.63;94889.34;5013721;28;20187;-59
2022/06/17 11:30:59;;;;;;;6.50;5.88;;;;;;;30.07;45.74;94905.72;5013734;28;20203;-62
2022/06/17 11:33:29;;;;;;;6.07;5.30;;;;;;;29.97;46.49;94876.75;5013766;28;20194;-62
2022/06/17 11:36:36;;;;;;;7.65;5.53;;;;;;;30.48;46.87;94873.69;5013378;28;20523;-64
2022/06/17 11:39:25;;;;;;;6.63;5.55;;;;;;;29.52;44.64;94940.63;4989174;28;20295;-65
2022/06/17 11:41:51;;;;;;;7.38;5.57;;;;;;;29.09;46.87;94879.41;5013418;28;20181;-67
2022/06/17 11:44:17;;;;;;;7.47;6.20;;;;;;;28.62;49.44;94810.81;5012790;28;20191;-64
2022/06/17 11:46:56;;;;;;;6.43;5.82;;;;;;;28.22;48.75;94824.75;5013426;28;20179;-59
2022/06/17 11:49:22;;;;;;;10.40;8.35;;;;;;;27.80;50.04;94792.03;5013606;28;20782;-62
2022/06/17 11:51:55;;;;;;;7.90;7.20;;;;;;;27.27;53.12;94739.22;5013082;28;20182;-61
2022/06/17 11:54:46;;;;;;;7.72;6.88;;;;;;;26.43;53.09;94744.88;5012154;28;20265;-59
2022/06/17 11:57:29;;;;;;;7.68;6.47;;;;;;;25.95;53.72;94731.94;5012774;28;20194;-60
2022/06/17 11:59:58;;;;;;;7.03;5.97;;;;;;;25.70;54.76;94718.25;5013114;28;20191;-62
2022/06/17 12:02:23;;;;;;;10.63;6.63;;;;;;;26.04;56.53;94683.69;5013237;28;20272;-63
2022/06/17 12:04:52;;;;;;;7.10;6.35;;;;;;;26.24;57.08;94678.22;5011594;28;20230;-63
2022/06/17 12:10:31;;;;;;;6.97;6.20;;;;;;;26.15;56.76;94698.59;5013001;28;20277;-59
2022/06/17 12:13:03;;;;;;;7.10;6.13;;;;;;;26.19;55.91;94707.56;5013307;28;20186;-63